Terminal Aerodrome Forecast
Issued by NWS

Home | Current Version | Previous Version | Text Only | Print | Product List | Glossary On
Versions: 1 2 3 4 5 6 7 8 9 10 11 12 13 14 15 16 17 18 19
000
FTUS43 KEAX 181700
TAFSTJ
TAF
KSTJ 181720Z 1818/1918 10010KT P6SM BKN008
     FM182100 12010KT P6SM BKN012
     FM190400 13008KT 5SM BR OVC008
     FM190800 13008KT 2SM BR OVC003
     FM191500 17011KT P6SM BKN008=

USA.gov is the U.S. government's official web portal to all federal, state and local government web resources and services.